Home > Products > Valid Products > TAF

000
FTUS42 KMFL 042342
TAFAPF
TAF
KAPF 042342Z 0500/0524 23015G25KT P6SM VCTS SCT020CB SCT030 BKN070
      TEMPO 0500/0503 4SM -TSRA BKN025CB
     FM050300 26012KT P6SM VCTS SCT030CB SCT070 BKN250
     FM050900 28007KT P6SM BKN050 BKN250
     FM051400 32013KT P6SM FEW050=



000
FTUS42 KMFL 042342
TAFFLL
TAF
KFLL 042342Z 0500/0524 15010KT P6SM VCTS SCT030CB BKN050 BKN250
      TEMPO 0500/0502 6SM -TSRA BKN015CB
     FM050300 24012KT P6SM VCTS SCT015CB BKN060 BKN250
     FM050600 28011KT P6SM SCT020 SCT060 SCT250
     FM051400 33010KT P6SM FEW050=



000
FTUS42 KMFL 042342
TAFPBI
TAF
KPBI 042342Z 0500/0524 13012KT P6SM VCTS SCT015CB BKN050 BKN250
      TEMPO 0500/0502 6SM -TSRA BKN012CB
     FM050300 27012KT P6SM VCTS SCT015CB BKN060 BKN250
     FM050600 30011KT P6SM SCT020 SCT060 SCT250
     FM051400 33015G25KT P6SM FEW050=



000
FTUS42 KMFL 042342
TAFMIA
TAF
KMIA 042342Z 0500/0524 20007KT P6SM VCTS SCT025CB BKN060 BKN250
      TEMPO 0500/0502 6SM -TSRA BKN020CB
     FM050300 23010KT P6SM VCTS SCT015CB BKN060 BKN250
     FM050600 29009KT P6SM SCT020 SCT060 SCT250
     FM051400 32010KT P6SM FEW050=



000
FTUS42 KMFL 042107 AAB
TAFMIA
TAF AMD
KMIA 042107Z 0421/0518 25011KT P6SM SHRA VCTS SCT025CB BKN050
      TEMPO 0421/0424 VRB15G25KT 4SM TSRA SCT010 BKN025CB
     FM050000 29005KT P6SM VCTS SCT040CB SCT120 BKN250
     FM050800 31011KT P6SM FEW250
     FM051400 33015KT P6SM FEW040=



000
FTUS42 KMFL 042107 AAC
TAFFLL
TAF AMD
KFLL 042107Z 0421/0518 25011KT P6SM SHRA VCTS SCT025CB BKN050
      TEMPO 0421/0424 VRB10G20KT 4SM TS SCT010 BKN025CB
     FM050000 29005KT P6SM VCTS SCT040CB SCT120 BKN250
     FM050700 31010KT P6SM FEW250
     FM051400 32012KT P6SM FEW040=



000
FTUS42 KMFL 042107 AAC
TAFAPF
TAF AMD
KAPF 042107Z 0421/0518 22010KT 6SM SHRA VCTS SCT025CB BKN050
      TEMPO 0421/0424 VRB15G25KT 3SM TSRA SCT009 BKN025CB
     FM050000 29005KT P6SM VCSH FEW025 SCT120 BKN250
     FM050600 31011KT P6SM FEW250=



000
FTUS42 KMFL 042107 AAD
TAFPBI
TAF AMD
KPBI 042107Z 0421/0518 24011KT P6SM SHRA VCTS SCT025CB BKN050
      TEMPO 0421/0424 VRB15G25KT 4SM TSRA SCT010 BKN025CB
     FM050000 29010KT P6SM VCTS SCT040CB SCT120 BKN250
     FM050800 31010KT P6SM FEW250
     FM051400 33015KT P6SM FEW050=



000
FTUS42 KMFL 042107 AAB
TAFMIA
TAF AMD
KMIA 042107Z 0421/0518 25011KT P6SM SHRA VCTS SCT025CB BKN050
      TEMPO 0421/0424 VRB15G25KT 4SM TSRA SCT010 BKN025CB
     FM050000 29005KT P6SM VCTS SCT040CB SCT120 BKN250
     FM050800 31011KT P6SM FEW250
     FM051400 33015KT P6SM FEW040=



000
FTUS42 KMFL 042107 AAC
TAFFLL
TAF AMD
KFLL 042107Z 0421/0518 25011KT P6SM SHRA VCTS SCT025CB BKN050
      TEMPO 0421/0424 VRB10G20KT 4SM TS SCT010 BKN025CB
     FM050000 29005KT P6SM VCTS SCT040CB SCT120 BKN250
     FM050700 31010KT P6SM FEW250
     FM051400 32012KT P6SM FEW040=



000
FTUS42 KMFL 042107 AAD
TAFPBI
TAF AMD
KPBI 042107Z 0421/0518 24011KT P6SM SHRA VCTS SCT025CB BKN050
      TEMPO 0421/0424 VRB15G25KT 4SM TSRA SCT010 BKN025CB
     FM050000 29010KT P6SM VCTS SCT040CB SCT120 BKN250
     FM050800 31010KT P6SM FEW250
     FM051400 33015KT P6SM FEW050=



000
FTUS42 KMFL 042107 AAC
TAFAPF
TAF AMD
KAPF 042107Z 0421/0518 22010KT 6SM SHRA VCTS SCT025CB BKN050
      TEMPO 0421/0424 VRB15G25KT 3SM TSRA SCT009 BKN025CB
     FM050000 29005KT P6SM VCSH FEW025 SCT120 BKN250
     FM050600 31011KT P6SM FEW250=



000
FTUS42 KMFL 042025 AAC
TAFPBI
TAF AMD
KPBI 042025Z 0420/0518 24012KT P6SM SHRA VCTS SCT025CB BKN050
      TEMPO 0420/0421 VRB15G25KT 1SM TSRA BKN025CB
     FM050000 29010KT P6SM VCTS SCT040CB SCT120 BKN250
     FM050800 31010KT P6SM FEW250
     FM051400 33015KT P6SM FEW050=



000
FTUS42 KMFL 042010 AAB
TAFFLL
TAF AMD
KFLL 042010Z 0420/0518 25011KT P6SM SHRA VCTS SCT025CB BKN050
      TEMPO 0420/0421 VRB10G20KT 2SM TS BKN025CB
     FM050000 29005KT P6SM VCTS SCT040CB SCT120 BKN250
     FM050700 31010KT P6SM FEW250
     FM051400 32012KT P6SM FEW040=



000
FTUS42 KMFL 042009 AAB
TAFPBI
TAF AMD
KPBI 042009Z 0420/0518 24012KT P6SM SHRA VCTS SCT025CB BKN050
      TEMPO 0420/0421 VRB15G25KT 3SM TSRA BKN025CB
     FM050000 29010KT P6SM VCTS SCT040CB SCT120 BKN250
     FM050800 31010KT P6SM FEW250
     FM051400 33015KT P6SM FEW050=



000
FTUS42 KMFL 041900 AAB
TAFAPF
TAF AMD
KAPF 041900Z 0419/0518 22010KT P6SM SHRA VCTS SCT025CB BKN050
      TEMPO 0419/0420 VRB06G25KT 4SM TSRA BKN025CB
     FM050000 29005KT P6SM VCSH FEW025 SCT120 BKN250
     FM050600 31011KT P6SM FEW250=



000
FTUS42 KMFL 041900 AAB
TAFAPF
TAF AMD
KAPF 041900Z 0419/0518 22010KT P6SM SHRA VCTS SCT025CB BKN050
      TEMPO 0419/0420 VRB06G25KT 4SM TSRA BKN025CB
     FM050000 29005KT P6SM VCSH FEW025 SCT120 BKN250
     FM050600 31011KT P6SM FEW250=



000
FTUS42 KMFL 041900 AAA
TAFFLL
TAF AMD
KFLL 041900Z 0419/0518 25011KT P6SM SHRA VCTS SCT025CB BKN050
      TEMPO 0419/0420 VRB06G25KT 2SM TS BKN025CB
     FM050000 29005KT P6SM VCTS SCT040CB SCT120 BKN250
     FM050700 31010KT P6SM FEW250
     FM051400 32012KT P6SM FEW040=



000
FTUS42 KMFL 041900 AAA
TAFFLL
TAF AMD
KFLL 041900Z 0419/0518 25011KT P6SM SHRA VCTS SCT025CB BKN050
      TEMPO 0419/0420 VRB06G25KT 2SM TS BKN025CB
     FM050000 29005KT P6SM VCTS SCT040CB SCT120 BKN250
     FM050700 31010KT P6SM FEW250
     FM051400 32012KT P6SM FEW040=



000
FTUS42 KMFL 041830 AAA
TAFPBI
TAF AMD
KPBI 041830Z 0419/0518 24012KT P6SM SHRA VCTS SCT025CB BKN050
      TEMPO 0419/0420 VRB06G25KT 5SM TSRA BKN025CB
     FM050000 29010KT P6SM VCTS SCT040CB SCT120 BKN250
     FM050800 31010KT P6SM FEW250
     FM051400 33015KT P6SM FEW050=



000
FTUS42 KMFL 041830 AAA
TAFPBI
TAF AMD
KPBI 041830Z 0419/0518 24012KT P6SM SHRA VCTS SCT025CB BKN050
      TEMPO 0419/0420 VRB06G25KT 5SM TSRA BKN025CB
     FM050000 29010KT P6SM VCTS SCT040CB SCT120 BKN250
     FM050800 31010KT P6SM FEW250
     FM051400 33015KT P6SM FEW050=



000
FTUS42 KMFL 041804 AAA
TAFMIA
TAF AMD
KMIA 041804Z 0418/0518 25011KT P6SM SHRA VCTS SCT025CB BKN050
      TEMPO 0418/0420 VRB06G25KT 2SM TSRA BKN025CB
     FM050000 29005KT P6SM VCTS SCT040CB SCT120 BKN250
     FM050800 31011KT P6SM FEW250
     FM051400 33015KT P6SM FEW040=



000
FTUS42 KMFL 041804 AAA
TAFMIA
TAF AMD
KMIA 041804Z 0418/0518 25011KT P6SM SHRA VCTS SCT025CB BKN050
      TEMPO 0418/0420 VRB06G25KT 2SM TSRA BKN025CB
     FM050000 29005KT P6SM VCTS SCT040CB SCT120 BKN250
     FM050800 31011KT P6SM FEW250
     FM051400 33015KT P6SM FEW040=



000
FTUS42 KMFL 041800 AAA
TAFAPF
TAF AMD
KAPF 041800Z 0418/0518 22010KT P6SM SHRA VCTS SCT025CB BKN050
      TEMPO 0418/0420 VRB06G25KT 2SM TSRA BKN025CB
     FM050000 29005KT P6SM VCSH FEW025 SCT120 BKN250
     FM050600 31011KT P6SM FEW250=



000
FTUS42 KMFL 041800 AAA
TAFAPF
TAF AMD
KAPF 041800Z 0418/0518 22010KT P6SM SHRA VCTS SCT025CB BKN050
      TEMPO 0418/0420 VRB06G25KT 2SM TSRA BKN025CB
     FM050000 29005KT P6SM VCSH FEW025 SCT120 BKN250
     FM050600 31011KT P6SM FEW250=



000
FTUS42 KMFL 041729
TAFAPF
TAF
KAPF 041729Z 0418/0518 22010KT P6SM SHRA VCTS SCT025CB BKN050
      TEMPO 0418/0420 VRB06G25KT 4SM TSRA BKN025CB
     FM050000 29005KT P6SM VCSH FEW025 SCT120 BKN250
     FM050600 31011KT P6SM FEW250=



000
FTUS42 KMFL 041729
TAFPBI
TAF
KPBI 041729Z 0418/0518 24012KT P6SM SHRA VCTS SCT025CB BKN050
      TEMPO 0418/0420 VRB06G25KT 3SM TSRA BKN025CB
     FM050000 29010KT P6SM VCTS SCT040CB SCT120 BKN250
     FM050800 31010KT P6SM FEW250
     FM051400 33015KT P6SM FEW050=



000
FTUS42 KMFL 041729
TAFFLL
TAF
KFLL 041729Z 0418/0518 25011KT P6SM SHRA VCTS SCT025CB BKN050
      TEMPO 0418/0420 VRB06G25KT 4SM TS BKN025CB
     FM050000 29005KT P6SM VCTS SCT040CB SCT120 BKN250
     FM050700 31010KT P6SM FEW250
     FM051400 32012KT P6SM FEW040=



000
FTUS42 KMFL 041729
TAFMIA
TAF
KMIA 041729Z 0418/0518 25011KT P6SM SHRA VCTS SCT025CB BKN050
      TEMPO 0418/0420 VRB06G25KT 4SM TSRA BKN025CB
     FM050000 29005KT P6SM VCTS SCT040CB SCT120 BKN250
     FM050800 31011KT P6SM FEW250
     FM051400 33015KT P6SM FEW040=



000
FTUS42 KMFL 041535 AAA
TAFMIA
TAF AMD
KMIA 041535Z 0416/0512 23010KT P6SM VCTS SCT025CB BKN050
     FM050000 29005KT P6SM VCSH FEW025 SCT120 BKN250
     FM050800 31011KT P6SM FEW250=



000
FTUS42 KMFL 041131
TAFAPF
TAF
KAPF 041131Z 0412/0512 21004KT P6SM VCSH SCT025 SCT050
     FM041600 25011KT P6SM VCTS SCT025CB BKN050
     FM050000 29005KT P6SM VCSH FEW025 SCT120 BKN250
     FM050600 31011KT P6SM FEW250=



000
FTUS42 KMFL 041131
TAFFLL
TAF
KFLL 041131Z 0412/0512 23007KT P6SM VCSH SCT025 SCT050
     FM041700 25011KT P6SM VCTS SCT025CB BKN050
     FM050000 29005KT P6SM VCSH FEW025 SCT120 BKN250
     FM050700 31011KT P6SM FEW250=



000
FTUS42 KMFL 041131
TAFMIA
TAF
KMIA 041131Z 0412/0512 23007KT P6SM VCSH SCT025 SCT050
     FM041700 25011KT P6SM VCTS SCT025CB BKN050
     FM050000 29005KT P6SM VCSH FEW025 SCT120 BKN250
     FM050800 31011KT P6SM FEW250=



000
FTUS42 KMFL 041131
TAFPBI
TAF
KPBI 041131Z 0412/0512 23007KT P6SM VCSH SCT025 SCT050
     FM041700 25011KT P6SM VCTS SCT025CB BKN050
     FM050000 29005KT P6SM VCSH FEW025 SCT120 BKN250
     FM050600 31011KT P6SM FEW250=



000
FTUS42 KMFL 041014 AAB
TAFMIA
TAF AMD
KMIA 041014Z 0410/0506 22004KT 3SM BR SCT005
      TEMPO 0410/0412 1/2SM FG OVC002
     FM041200 22010G18KT P6SM SCT025 BKN050
     FM041600 24010G18KT P6SM -SHRA SCT025 BKN050
      TEMPO 0416/0420 P6SM -TSRA SCT020CB BKN050=



000
FTUS42 KMFL 041014 AAC
TAFFLL
TAF AMD
KFLL 041014Z 0410/0506 22005KT 6SM BR SCT005 BKN200
      TEMPO 0410/0412 3SM BR BKN004
     FM041200 22010G17KT P6SM SCT025 BKN050
     FM041600 24010G17KT P6SM -SHRA SCT025 BKN050
      TEMPO 0416/0420 P6SM -TSRA SCT020CB BKN050=



000
FTUS42 KMFL 041014 AAB
TAFPBI
TAF AMD
KPBI 041014Z 0410/0506 22003KT P6SM FEW020 FEW250
     FM041600 24010G17KT P6SM -SHRA SCT025 BKN050
      TEMPO 0416/0420 P6SM -TSRA SCT020CB BKN050
     FM050300 29009KT P6SM SCT050 SCT250=



000
FTUS42 KMFL 041014 AAB
TAFAPF
TAF AMD
KAPF 041014Z 0410/0506 20007KT P6SM SKC
     FM041200 24014G20KT P6SM -SHRA SCT025 BKN050
      TEMPO 0413/0417 P6SM -TSRA SCT020CB BKN050
     FM050000 27011KT P6SM BKN050=



000
FTUS42 KMFL 040914 AAB
TAFFLL
TAF AMD
KFLL 040914Z 0409/0506 20004KT 6SM BR FEW010 SCT250
      TEMPO 0409/0411 3SM BR BKN004
     FM041200 22010G17KT P6SM SCT025 BKN050
     FM041600 24010G17KT P6SM -SHRA SCT025 BKN050
      TEMPO 0416/0420 P6SM -TSRA SCT020CB BKN050=



000
FTUS42 KMFL 040910 AAA
TAFAPF
TAF AMD
KAPF 040910Z 0409/0506 VRB04KT 6SM BR SCT015 BKN250
     FM041200 24014G20KT P6SM -SHRA SCT025 BKN050
      TEMPO 0413/0417 P6SM -TSRA SCT020CB BKN050
     FM050000 27011KT P6SM BKN050=



000
FTUS42 KMFL 040910 AAA
TAFPBI
TAF AMD
KPBI 040910Z 0409/0506 23006KT P6SM FEW020 SCT250
     FM041600 24010G17KT P6SM -SHRA SCT025 BKN050
      TEMPO 0416/0420 P6SM -TSRA SCT020CB BKN050
     FM050300 29009KT P6SM SCT050 SCT250=



000
FTUS42 KMFL 040910 AAA
TAFMIA
TAF AMD
KMIA 040910Z 0409/0506 VRB02KT 4SM BR FEW010 SCT250
      TEMPO 0409/0411 3SM BR BKN005
     FM041200 22010G18KT P6SM SCT025 BKN050
     FM041600 24010G18KT P6SM -SHRA SCT025 BKN050
      TEMPO 0416/0420 P6SM -TSRA SCT020CB BKN050=



000
FTUS42 KMFL 040910 AAA
TAFFLL
TAF AMD
KFLL 040910Z 0409/0506 20004KT 6SM BR FEW010 SCT250
     FM041200 22010G17KT P6SM SCT025 BKN050
     FM041600 24010G17KT P6SM -SHRA SCT025 BKN050
      TEMPO 0416/0420 P6SM -TSRA SCT020CB BKN050=



000
FTUS42 KMFL 040910 AAA
TAFAPF
TAF AMD
KAPF 040910Z 0409/0506 VRB04KT 6SM BR SCT015 BKN250
     FM041200 24014G20KT P6SM -SHRA SCT025 BKN050
      TEMPO 0413/0417 P6SM -TSRA SCT020CB BKN050
     FM050000 27011KT P6SM BKN050=



000
FTUS42 KMFL 040910 AAA
TAFPBI
TAF AMD
KPBI 040910Z 0409/0506 23006KT P6SM FEW020 SCT250
     FM041600 24010G17KT P6SM -SHRA SCT025 BKN050
      TEMPO 0416/0420 P6SM -TSRA SCT020CB BKN050
     FM050300 29009KT P6SM SCT050 SCT250=



000
FTUS42 KMFL 040910 AAA
TAFMIA
TAF AMD
KMIA 040910Z 0409/0506 VRB02KT 4SM BR FEW010 SCT250
      TEMPO 0409/0411 3SM BR BKN005
     FM041200 22010G18KT P6SM SCT025 BKN050
     FM041600 24010G18KT P6SM -SHRA SCT025 BKN050
      TEMPO 0416/0420 P6SM -TSRA SCT020CB BKN050=



000
FTUS42 KMFL 040910 AAA
TAFFLL
TAF AMD
KFLL 040910Z 0409/0506 20004KT 6SM BR FEW010 SCT250
     FM041200 22010G17KT P6SM SCT025 BKN050
     FM041600 24010G17KT P6SM -SHRA SCT025 BKN050
      TEMPO 0416/0420 P6SM -TSRA SCT020CB BKN050=



000
FTUS42 KMFL 040543
TAFAPF
TAF
KAPF 040543Z 0406/0506 VRB03KT 6SM BR SCT015 BKN250
     FM041200 24010G18KT P6SM -SHRA SCT025 BKN050
      TEMPO 0413/0417 P6SM -TSRA SCT020CB BKN050
     FM050000 27011KT P6SM BKN050=



000
FTUS42 KMFL 040543
TAFMIA
TAF
KMIA 040543Z 0406/0506 VRB02KT P6SM FEW030 SCT250
     FM041200 22010G18KT P6SM VCSH SCT025 BKN050
     FM041600 24010G18KT P6SM -SHRA SCT025 BKN050 PROB30 0416/0419
      TSRA SCT020CB BKN050=



000
FTUS42 KMFL 040543
TAFPBI
TAF
KPBI 040543Z 0406/0506 VRB04KT P6SM FEW030 FEW090 SCT250
     FM041200 22009KT P6SM VCSH SCT025 BKN050
     FM041600 24010G18KT P6SM -SHRA SCT025 BKN050 PROB30 0416/0419
      TSRA SCT020CB BKN050
     FM050300 29009KT P6SM SCT250=



000
FTUS42 KMFL 040543
TAFFLL
TAF
KFLL 040543Z 0406/0506 VRB02KT P6SM FEW030 SCT250
     FM041200 22010G17KT P6SM VCSH SCT025 BKN050
     FM041600 24010G17KT P6SM -SHRA SCT025 BKN050 PROB30 0416/0419
      TSRA SCT020CB BKN050=



000
FTUS42 KMFL 040543
TAFFLL
TAF
KFLL 040543Z 0406/0506 VRB02KT P6SM FEW030 SCT250
     FM041200 22010G17KT P6SM VCSH SCT025 BKN050
     FM041600 24010G17KT P6SM -SHRA SCT025 BKN050 PROB30 0416/0419
      TSRA SCT020CB BKN050=



000
FTUS42 KMFL 040543
TAFPBI
TAF
KPBI 040543Z 0406/0506 VRB04KT P6SM FEW030 FEW090 SCT250
     FM041200 22009KT P6SM VCSH SCT025 BKN050
     FM041600 24010G18KT P6SM -SHRA SCT025 BKN050 PROB30 0416/0419
      TSRA SCT020CB BKN050
     FM050300 29009KT P6SM SCT250=



000
FTUS42 KMFL 040543
TAFMIA
TAF
KMIA 040543Z 0406/0506 VRB02KT P6SM FEW030 SCT250
     FM041200 22010G18KT P6SM VCSH SCT025 BKN050
     FM041600 24010G18KT P6SM -SHRA SCT025 BKN050 PROB30 0416/0419
      TSRA SCT020CB BKN050=



000
FTUS42 KMFL 040543
TAFAPF
TAF
KAPF 040543Z 0406/0506 VRB03KT 6SM BR SCT015 BKN250
     FM041200 24010G18KT P6SM -SHRA SCT025 BKN050
      TEMPO 0413/0417 P6SM -TSRA SCT020CB BKN050
     FM050000 27011KT P6SM BKN050=



000
FTUS42 KMFL 040303 AAB
TAFMIA
TAF AMD
KMIA 040303Z 0403/0424 VRB04KT P6SM FEW030 SCT250
     FM041200 24010G18KT P6SM VCSH SCT025 BKN050 PROB30 0415/0418
      TSRA SCT020CB BKN050=



000
FTUS42 KMFL 040303 AAB
TAFAPF
TAF AMD
KAPF 040303Z 0403/0424 VRB03KT P6SM SCT015 BKN250
     FM041200 24010G18KT P6SM VCSH SCT025 BKN050 PROB30 0412/0415
      TSRA SCT020CB BKN050=



000
FTUS42 KMFL 040303 AAB
TAFFLL
TAF AMD
KFLL 040303Z 0403/0424 VRB04KT P6SM FEW030 SCT250
     FM041200 25010G17KT P6SM VCSH SCT025 BKN050 PROB30 0414/0417
      TSRA SCT020CB BKN050=



000
FTUS42 KMFL 040303 AAB
TAFPBI
TAF AMD
KPBI 040303Z 0403/0424 11009KT P6SM FEW030 SCT080 SCT250
     FM040600 19004KT P6SM FEW030 SCT080 SCT250
     FM041200 22009KT P6SM VCSH SCT025 BKN050 PROB30 0414/0417 TSRA
      SCT020CB BKN050=



000
FTUS42 KMFL 040155 AAA
TAFFLL
TAF AMD
KFLL 040155Z 0402/0424 19012KT P6SM SCT040 SCT080 BKN250
     FM040300 VRB05KT P6SM FEW040 SCT120 BKN250
     FM041200 22006KT P6SM VCSH SCT025 BKN050 PROB30 0412/0415 TSRA
      SCT020CB BKN050=



000
FTUS42 KMFL 040155 AAA
TAFPBI
TAF AMD
KPBI 040155Z 0402/0424 08008KT P6SM SCT030 BKN060 BKN250
     FM040300 VRB04KT P6SM FEW040 SCT120 BKN250
     FM041200 22009KT P6SM VCSH SCT025 BKN050 PROB30 0412/0415 TSRA
      SCT020CB BKN050=



000
FTUS42 KMFL 040155 AAA
TAFAPF
TAF AMD
KAPF 040155Z 0402/0424 30007KT P6SM SCT015 SCT250
     FM040800 VRB03KT P6SM SCT015 BKN250
     FM041200 23006KT P6SM VCSH SCT025 BKN050 PROB30 0412/0415 TSRA
      SCT020CB BKN050=



000
FTUS42 KMFL 040155 AAA
TAFMIA
TAF AMD
KMIA 040155Z 0402/0424 24004KT P6SM SCT035 SCT060 BKN080
     FM040300 VRB03KT P6SM FEW030 SCT250
     FM041200 22004KT P6SM VCSH SCT025 BKN050 PROB30 0412/0415 TSRA
      SCT020CB BKN050=



000
FTUS42 KMFL 032348
TAFMIA
TAF
KMIA 032348Z 0400/0424 11011G19KT P6SM SCT035 SCT060 BKN080
     FM040300 22003KT P6SM FEW030 SCT250
     FM041200 22004KT P6SM VCSH SCT025 BKN050 PROB30 0412/0415 TSRA
      SCT020CB BKN050=



000
FTUS42 KMFL 032348
TAFMIA
TAF
KMIA 032348Z 0400/0424 11011G19KT P6SM SCT035 SCT060 BKN080
     FM040300 22003KT P6SM FEW030 SCT250
     FM041200 22004KT P6SM VCSH SCT025 BKN050 PROB30 0412/0415 TSRA
      SCT020CB BKN050=



000
FTUS42 KMFL 032348
TAFAPF
TAF
KAPF 032348Z 0400/0424 29008KT P6SM SCT015 SCT250
     FM040800 VRB03KT P6SM SCT015 BKN250
     FM041200 23006KT P6SM VCSH SCT025 BKN050 PROB30 0412/0415 TSRA
      SCT020CB BKN050=



000
FTUS42 KMFL 032348
TAFFLL
TAF
KFLL 032348Z 0400/0424 19012KT P6SM VCSH SCT040 SCT080 BKN250
     FM040300 24005KT P6SM FEW040 SCT120 BKN250
     FM041200 22006KT P6SM VCSH SCT025 BKN050 PROB30 0412/0415 TSRA
      SCT020CB BKN050=



000
FTUS42 KMFL 032348
TAFPBI
TAF
KPBI 032348Z 0400/0424 17010KT P6SM VCTS SCT040CB SCT120 BKN250
      TEMPO 0400/0402 VRB12G20KT 3SM SHRA BKN030 BKN070
     FM040300 22004KT P6SM VCSH FEW040 SCT120 BKN250
     FM041200 22009KT P6SM VCSH SCT025 BKN050 PROB30 0412/0415 TSRA
      SCT020CB BKN050=



000
FTUS42 KMFL 032348
TAFPBI
TAF
KPBI 032348Z 0400/0424 17010KT P6SM VCTS SCT040CB SCT120 BKN250
      TEMPO 0400/0402 VRB12G20KT 3SM SHRA BKN030 BKN070
     FM040300 22004KT P6SM VCSH FEW040 SCT120 BKN250
     FM041200 22009KT P6SM VCSH SCT025 BKN050 PROB30 0412/0415 TSRA
      SCT020CB BKN050=



000
FTUS42 KMFL 032348
TAFFLL
TAF
KFLL 032348Z 0400/0424 19012KT P6SM VCSH SCT040 SCT080 BKN250
     FM040300 24005KT P6SM FEW040 SCT120 BKN250
     FM041200 22006KT P6SM VCSH SCT025 BKN050 PROB30 0412/0415 TSRA
      SCT020CB BKN050=



000
FTUS42 KMFL 032348
TAFAPF
TAF
KAPF 032348Z 0400/0424 29008KT P6SM SCT015 SCT250
     FM040800 VRB03KT P6SM SCT015 BKN250
     FM041200 23006KT P6SM VCSH SCT025 BKN050 PROB30 0412/0415 TSRA
      SCT020CB BKN050=



000
FTUS42 KMFL 032141 AAA
TAFAPF
TAF AMD
KAPF 032141Z 0322/0418 21011G17KT P6SM FEW050 SCT250
     FM040000 26005KT P6SM FEW030 SCT050 SCT250
     FM041300 23012KT P6SM VCSH SCT030 SCT050=



000
FTUS42 KMFL 032135 AAB
TAFMIA
TAF AMD
KMIA 032135Z 0322/0418 11012KT P6SM VCTS SCT035CB BKN050 BKN250
      TEMPO 0322/0324 VRB12G20KT 3SM SHRA BKN030 BKN050
     FM040100 21008KT P6SM VCSH FEW030 SCT080 BKN250
     FM040300 23003KT P6SM FEW030 SCT250
     FM041300 25011KT P6SM VCSH SCT030 SCT050=



000
FTUS42 KMFL 032128 AAA
TAFFLL
TAF AMD
KFLL 032128Z 0321/0418 17012KT P6SM VCTS FEW014 SCT025CB BKN060
     FM040100 21008KT P6SM VCSH FEW030 SCT080 BKN250
     FM040300 23003KT P6SM FEW030 SCT250
     FM041300 25011KT P6SM VCSH SCT030 SCT050=



000
FTUS42 KMFL 032122 AAA
TAFPBI
TAF AMD
KPBI 032122Z 0321/0418 16012KT P6SM VCTS SCT030CB BKN050 BKN060
     FM040100 21008KT P6SM VCSH FEW030 SCT080 BKN250
     FM040300 23003KT P6SM FEW030 SCT250
     FM041300 25011KT P6SM VCSH SCT030 SCT050=



000
FTUS42 KMFL 032122 AAA
TAFPBI
TAF AMD
KPBI 032122Z 0321/0418 16012KT P6SM VCTS SCT030CB BKN050 BKN060
     FM040100 21008KT P6SM VCSH FEW030 SCT080 BKN250
     FM040300 23003KT P6SM FEW030 SCT250
     FM041300 25011KT P6SM VCSH SCT030 SCT050=



000
FTUS42 KMFL 031827 AAA
TAFMIA
TAF AMD
KMIA 031827Z 0318/0418 16011KT P6SM VCTS SCT030CB BKN070
      TEMPO 0318/0319 3SM RA BKN020
     FM040100 21008KT P6SM VCSH FEW030 SCT080 BKN250
     FM040300 23003KT P6SM FEW030 SCT250
     FM041300 25011KT P6SM VCSH SCT030 SCT050=



000
FTUS42 KMFL 031720
TAFFLL
TAF
KFLL 031720Z 0318/0418 19011KT P6SM VCTS SCT030CB BKN060
     FM040100 21008KT P6SM VCSH FEW030 SCT080 BKN250
     FM040300 23003KT P6SM FEW030 SCT250
     FM041300 25011KT P6SM VCSH SCT030 SCT050=



000
FTUS42 KMFL 031720
TAFAPF
TAF
KAPF 031720Z 0318/0418 21011KT P6SM VCSH SCT020 BKN050
      TEMPO 0318/0320 BKN020
     FM040000 26005KT P6SM FEW030 SCT050
     FM041300 23012KT P6SM VCSH SCT030 SCT050=



000
FTUS42 KMFL 031720
TAFPBI
TAF
KPBI 031720Z 0318/0418 19011KT P6SM VCTS SCT030CB BKN040
     FM040100 21008KT P6SM VCSH FEW030 SCT080 BKN250
     FM040300 23003KT P6SM FEW030 SCT250
     FM041300 25011KT P6SM VCSH SCT030 SCT050=



000
FTUS42 KMFL 031720
TAFMIA
TAF
KMIA 031720Z 0318/0418 16011KT P6SM VCTS SCT030CB BKN070
      TEMPO 0320/0323 19011KT
     FM040100 21008KT P6SM VCSH FEW030 SCT080 BKN250
     FM040300 23003KT P6SM FEW030 SCT250
     FM041300 25011KT P6SM VCSH SCT030 SCT050=



000
FTUS42 KMFL 031720
TAFMIA
TAF
KMIA 031720Z 0318/0418 16011KT P6SM VCTS SCT030CB BKN070
      TEMPO 0320/0323 19011KT
     FM040100 21008KT P6SM VCSH FEW030 SCT080 BKN250
     FM040300 23003KT P6SM FEW030 SCT250
     FM041300 25011KT P6SM VCSH SCT030 SCT050=



000
FTUS42 KMFL 031720
TAFPBI
TAF
KPBI 031720Z 0318/0418 19011KT P6SM VCTS SCT030CB BKN040
     FM040100 21008KT P6SM VCSH FEW030 SCT080 BKN250
     FM040300 23003KT P6SM FEW030 SCT250
     FM041300 25011KT P6SM VCSH SCT030 SCT050=



000
FTUS42 KMFL 031720
TAFFLL
TAF
KFLL 031720Z 0318/0418 19011KT P6SM VCTS SCT030CB BKN060
     FM040100 21008KT P6SM VCSH FEW030 SCT080 BKN250
     FM040300 23003KT P6SM FEW030 SCT250
     FM041300 25011KT P6SM VCSH SCT030 SCT050=



000
FTUS42 KMFL 031720
TAFAPF
TAF
KAPF 031720Z 0318/0418 21011KT P6SM VCSH SCT020 BKN050
      TEMPO 0318/0320 BKN020
     FM040000 26005KT P6SM FEW030 SCT050
     FM041300 23012KT P6SM VCSH SCT030 SCT050=



000
FTUS42 KMFL 031505 AAA
TAFMIA
TAF AMD
KMIA 031505Z 0315/0412 15012KT P6SM VCSH SCT025 SCT080 SCT210
     FM031800 17012KT P6SM VCTS SCT030CB BKN050
     FM040100 21008KT P6SM VCSH FEW030 SCT080 BKN250
     FM040300 23003KT P6SM FEW030 SCT250=



000
FTUS42 KMFL 031505 AAA
TAFAPF
TAF AMD
KAPF 031505Z 0315/0412 20012KT P6SM VCSH SCT017 BKN023 BKN045
     FM040000 26005KT P6SM FEW030 SCT050=



000
FTUS42 KMFL 031505 AAA
TAFPBI
TAF AMD
KPBI 031505Z 0315/0412 17008KT P6SM VCSH SCT030 BKN040 BKN060
     FM031700 19011KT P6SM VCTS SCT030CB BKN050
     FM040100 21008KT P6SM VCSH FEW030 SCT080 BKN250
     FM040300 23003KT P6SM FEW030 SCT250=



000
FTUS42 KMFL 031505 AAA
TAFFLL
TAF AMD
KFLL 031505Z 0315/0412 19011KT P6SM VCSH SCT025 BKN040 BKN150
     FM031700 19011KT P6SM VCTS SCT030CB BKN050
     FM040100 21008KT P6SM VCSH FEW030 SCT080 BKN250
     FM040300 23003KT P6SM FEW030 SCT250=



000
FTUS42 KMFL 031120
TAFAPF
TAF
KAPF 031120Z 0312/0412 08005KT P6SM FEW025
     FM031500 23011KT P6SM VCSH SCT035 SCT050
     FM040000 26005KT P6SM FEW030 SCT050=



000
FTUS42 KMFL 031120
TAFMIA
TAF
KMIA 031120Z 0312/0412 16008KT P6SM VCSH SCT030 SCT050
     FM031800 19011KT P6SM VCTS SCT030CB BKN050
     FM040100 21008KT P6SM VCSH FEW030 SCT080 BKN250
     FM040300 23003KT P6SM FEW030 SCT250=



000
FTUS42 KMFL 031120
TAFFLL
TAF
KFLL 031120Z 0312/0412 17008KT P6SM VCSH SCT025 SCT050
     FM031800 19011KT P6SM VCTS SCT030CB BKN050
     FM040100 21008KT P6SM VCSH FEW030 SCT080 BKN250
     FM040300 23003KT P6SM FEW030 SCT250=



000
FTUS42 KMFL 031120
TAFPBI
TAF
KPBI 031120Z 0312/0412 19008KT P6SM VCSH FEW020 SCT050
     FM031800 19011KT P6SM VCTS SCT030CB BKN050
     FM040100 21008KT P6SM VCSH FEW030 SCT080 BKN250
     FM040300 23003KT P6SM FEW030 SCT250=



000
FTUS42 KMFL 030907 AAA
TAFAPF
TAF AMD
KAPF 030907Z 0309/0406 11004KT P6SM FEW010 SCT040 SCT250
     FM031400 22009G17KT P6SM SCT035 BKN250
     FM040300 21004KT P6SM BKN250=



000
FTUS42 KMFL 030907 AAA
TAFMIA
TAF AMD
KMIA 030907Z 0309/0406 17008KT P6SM VCSH SCT020 BKN250
     FM031900 17009KT P6SM VCTS SCT025CB BKN250
     FM040300 21004KT P6SM SCT030 SCT250=



000
FTUS42 KMFL 030907 AAA
TAFFLL
TAF AMD
KFLL 030907Z 0309/0406 17012KT P6SM VCSH SCT020 BKN250
     FM031900 17012KT P6SM VCTS SCT025CB BKN250
     FM040300 22004KT P6SM SCT030 SCT250=



000
FTUS42 KMFL 030907 AAB
TAFPBI
TAF AMD
KPBI 030907Z 0309/0406 17009KT P6SM VCSH SCT020 BKN030 BKN250
     FM031300 17011KT P6SM VCSH SCT020 BKN250
     FM031900 19009KT P6SM VCTS SCT025CB BKN250
     FM040300 23004KT P6SM VCSH SCT030 SCT250=



000
FTUS42 KMFL 030702 AAA
TAFPBI
TAF AMD
KPBI 030702Z 0307/0406 14009KT P6SM VCSH BKN018
     FM031300 17011KT P6SM VCSH SCT025 BKN050=



000
FTUS42 KMFL 030542
TAFAPF
TAF
KAPF 030542Z 0306/0406 09005KT P6SM FEW010 SCT040 SCT200
     FM031400 20010KT P6SM SCT035 BKN200=



000
FTUS42 KMFL 030542
TAFFLL
TAF
KFLL 030542Z 0306/0406 14010KT P6SM SCT020
     FM031300 17012KT P6SM VCSH SCT025 BKN050=



000
FTUS42 KMFL 030542
TAFMIA
TAF
KMIA 030542Z 0306/0406 15006KT P6SM SCT020 SCT250
     FM031300 17008KT P6SM VCSH SCT025 BKN050
     FM031800 19009KT P6SM VCSH SCT025 BKN050=



000
FTUS42 KMFL 030542
TAFPBI
TAF
KPBI 030542Z 0306/0406 14009KT P6SM BKN020
     FM031300 17011KT P6SM VCSH SCT025 BKN050=



000
FTUS42 KMFL 030258 AAA
TAFAPF
TAF AMD
KAPF 030258Z 0303/0324 VRB04KT P6SM FEW010 SCT040 BKN200
     FM030600 09005KT P6SM FEW010 SCT040 BKN200
     FM031400 20010KT P6SM SCT035 BKN200=



000
FTUS42 KMFL 030258 AAA
TAFFLL
TAF AMD
KFLL 030258Z 0303/0324 13010KT P6SM SCT020 SCT250
     FM031300 17012KT P6SM VCSH SCT025 BKN050=



000
FTUS42 KMFL 030258 AAA
TAFPBI
TAF AMD
KPBI 030258Z 0303/0324 14008KT P6SM SCT020 SCT250
     FM031300 17010G16KT P6SM VCSH SCT025 BKN050=



000
FTUS42 KMFL 030258 AAA
TAFMIA
TAF AMD
KMIA 030258Z 0303/0324 12008KT P6SM SCT020 SCT250
     FM031300 17008KT P6SM VCSH SCT025 BKN050
     FM031800 19009KT P6SM VCSH SCT025 BKN050=



000
FTUS42 KMFL 022348
TAFFLL
TAF
KFLL 022348Z 0300/0324 12014KT P6SM FEW023
     FM030200 13010KT P6SM SCT023 SCT250
     FM031400 17012KT P6SM VCSH SCT025 BKN050=



000
FTUS42 KMFL 022348
TAFPBI
TAF
KPBI 022348Z 0300/0324 13014KT P6SM SCT023 SCT250
     FM030200 14008KT P6SM SCT020 SCT250
     FM031400 17010KT P6SM VCSH SCT025 BKN050=



000
FTUS42 KMFL 022348
TAFAPF
TAF
KAPF 022348Z 0300/0324 21011KT P6SM VCSH SCT040 SCT250
     FM030200 VRB04KT P6SM FEW040 BKN200
     FM030600 09005KT P6SM FEW040 BKN200
     FM031400 20010KT P6SM SCT035 BKN200=



000
FTUS42 KMFL 022348
TAFMIA
TAF
KMIA 022348Z 0300/0324 11011KT P6SM SCT029 SCT060
     FM030200 12008KT P6SM SCT025 SCT250
     FM031400 17008KT P6SM VCSH SCT025 BKN050
     FM031800 19009KT P6SM VCSH SCT025 BKN050=



000
FTUS42 KMFL 022117 AAB
TAFAPF
TAF AMD
KAPF 022117Z 0221/0318 21011KT P6SM VCSH FEW035 SCT050
     FM030100 VRB04KT P6SM SCT200
     FM031400 20010KT P6SM SCT035=



000
FTUS42 KMFL 022114 AAA
TAFMIA
TAF AMD
KMIA 022114Z 0221/0318 11013G19KT P6SM SCT029
     FM030100 12008KT P6SM SCT025
     FM031400 17008KT P6SM SCT025=



000
FTUS42 KMFL 022105 AAA
TAFFLL
TAF AMD
KFLL 022105Z 0221/0318 13015KT P6SM SCT026
     FM030200 13010KT P6SM SCT025
     FM031400 16012KT P6SM VCSH SCT030=



000
FTUS42 KMFL 022105 AAA
TAFFLL
TAF AMD
KFLL 022105Z 0221/0318 13015KT P6SM SCT026
     FM030200 13010KT P6SM SCT025
     FM031400 16012KT P6SM VCSH SCT030=



000
FTUS42 KMFL 022101 AAA
TAFPBI
TAF AMD
KPBI 022101Z 0221/0318 13015KT P6SM SCT023 SCT040
     FM030200 14008KT P6SM SCT035
     FM031400 17012KT P6SM VCSH SCT030=



000
FTUS42 KMFL 021849 AAA
TAFAPF
TAF AMD
KAPF 021849Z 0219/0318 20012KT P6SM VCSH SCT035 BKN050 BKN070
     FM030100 VRB04KT P6SM SCT200
     FM031400 20010KT P6SM SCT035=



000
FTUS42 KMFL 021730
TAFMIA
TAF
KMIA 021730Z 0218/0318 12012KT P6SM BKN025
     FM022100 12012KT P6SM SCT025
     FM030100 12008KT P6SM SCT025
     FM031400 17008KT P6SM SCT025=



000
FTUS42 KMFL 021730
TAFFLL
TAF
KFLL 021730Z 0218/0318 13015KT P6SM SCT025
     FM030200 13010KT P6SM SCT025
     FM031400 16012KT P6SM VCSH SCT030=



000
FTUS42 KMFL 021730
TAFAPF
TAF
KAPF 021730Z 0218/0318 15012KT P6SM VCSH SCT035 SCT070
     FM021900 20012KT P6SM VCSH SCT050
     FM030100 VRB04KT P6SM SCT200
     FM031400 20010KT P6SM SCT035=



000
FTUS42 KMFL 021730
TAFPBI
TAF
KPBI 021730Z 0218/0318 13015KT P6SM SCT025 SCT030
     FM030200 14008KT P6SM SCT035
     FM031400 17012KT P6SM VCSH SCT030=



000
FTUS42 KMFL 021424 AAA
TAFMIA
TAF AMD
KMIA 021424Z 0214/0312 13015KT P6SM BKN025 BKN250
     FM021700 12015KT P6SM SCT035
     FM030100 12008KT P6SM SCT050=



000
FTUS42 KMFL 021424 AAA
TAFPBI
TAF AMD
KPBI 021424Z 0214/0312 13015KT P6SM SCT020 BKN025
     FM021700 13015KT P6SM SCT025 SCT045
     FM030100 14010KT P6SM SCT050=



000
FTUS42 KMFL 021424 AAA
TAFFLL
TAF AMD
KFLL 021424Z 0214/0312 13015KT P6SM SCT025 BKN035
     FM021600 13015KT P6SM SCT035
     FM030200 13010KT P6SM SCT050=



000
FTUS42 KMFL 021424 AAA
TAFAPF
TAF AMD
KAPF 021424Z 0214/0312 14010KT P6SM SCT020
     FM021900 21010KT P6SM SCT050
     FM030100 VRB03KT P6SM SCT200=



000
FTUS42 KMFL 021126
TAFPBI
TAF
KPBI 021126Z 0212/0312 12012KT P6SM SCT025 SCT040
     FM021400 13015KT P6SM SCT025 SCT050
     FM030100 14010KT P6SM SCT050=



000
FTUS42 KMFL 021126
TAFAPF
TAF
KAPF 021126Z 0212/0312 09006KT P6SM FEW025
     FM021400 15010KT P6SM SCT050
     FM021900 21010KT P6SM SCT050
     FM030200 VRB03KT P6SM SCT200=



000
FTUS42 KMFL 021126
TAFFLL
TAF
KFLL 021126Z 0212/0312 13012KT P6SM SCT020 SCT035 SCT250
     FM021400 13015KT P6SM SCT025 SCT050
     FM030200 13010KT P6SM FEW025 SCT050=



000
FTUS42 KMFL 021126
TAFMIA
TAF
KMIA 021126Z 0212/0312 12012KT P6SM SCT025 SCT045
     FM021400 13015KT P6SM SCT035 SCT050
     FM030100 12008KT P6SM FEW025 SCT050=



000
FTUS42 KMFL 020546
TAFMIA
TAF
KMIA 020546Z 0206/0306 10011KT P6SM SCT018 SCT028 BKN045
      TEMPO 0206/0208 10011KT P6SM SCT020 BKN028 BKN045
     FM021500 13013G19KT P6SM SCT025 SCT050 BKN250
     FM030000 11010KT P6SM FEW025 SCT050 BKN250=



000
FTUS42 KMFL 020546
TAFAPF
TAF
KAPF 020546Z 0206/0306 07006KT P6SM SCT250
     FM021200 11008KT P6SM SCT025 SCT250
     FM021500 15010G16KT P6SM SCT050 SCT250
     FM021800 22009KT P6SM SCT050 SCT250
     FM030000 24005KT P6SM SCT250
     FM030200 12004KT P6SM FEW250=



000
FTUS42 KMFL 020546
TAFPBI
TAF
KPBI 020546Z 0206/0306 12013KT P6SM FEW024 SCT250
     FM020900 12010KT P6SM SCT020 SCT250
     FM021400 13015G21KT P6SM SCT025 BKN050 BKN250
     FM030000 13011KT P6SM SCT050 SCT250=



000
FTUS42 KMFL 020546
TAFFLL
TAF
KFLL 020546Z 0206/0306 10014KT P6SM FEW021 SCT060 SCT250
     FM021200 12012KT P6SM SCT030 BKN250
     FM021400 13015G22KT P6SM SCT025 SCT050 SCT250
     FM030000 12010KT P6SM FEW025 SCT050 BKN250=



    US Dept of Commerce
    National Oceanic and Atmospheric Administration
    National Weather Service
    1325 East West Highway
    Silver Spring, MD 20910
    Page Author: NWS Internet Services Team
Disclaimer
Information Quality
Credits
Glossary
Privacy Policy
Freedom of Information Act (FOIA)
About Us
Career Opportunities